Time;durP1;ratioP1;P1;durP2;ratioP2;P2;SDS_P1;SDS_P2;PMS_P1;PMS_P2;Temp;Humidity;BMP_temperature;BMP_pressure;BME280_temperature;BME280_humidity;BME280_pressure;Samples;Min_cycle;Max_cycle;Signal;HPM_P1;HPM_P2
2023/04/19 00:00:40;;;;;;;;;;;;;;;13.75;70.88;99725.47;5018280;28;19928;-82
2023/04/19 00:03:06;;;;;;;;;;;;;;;13.66;70.83;99731.75;5016574;28;19973;-81
2023/04/19 00:05:31;;;;;;;;;;;;;;;13.58;71.42;99729.03;5003650;28;20357;-80
2023/04/19 00:07:57;;;;;;;;;;;;;;;13.31;72.76;99733.50;5000705;28;19968;-81
2023/04/19 00:10:23;;;;;;;;;;;;;;;13.20;73.20;99731.13;5003365;28;19922;-82
2023/04/19 00:12:49;;;;;;;;;;;;;;;13.22;73.34;99728.31;5001516;28;19921;-80
2023/04/19 00:15:14;;;;;;;;;;;;;;;13.31;73.30;99730.06;5001085;28;19921;-81
2023/04/19 00:17:40;;;;;;;;;;;;;;;13.34;72.89;99727.09;5002392;28;20064;-80
2023/04/19 00:20:07;;;;;;;;;;;;;;;13.37;73.36;99724.13;5001515;28;19929;-81
2023/04/19 00:22:32;;;;;;;;;;;;;;;13.36;73.42;99725.94;5003647;28;19922;-80
2023/04/19 00:24:57;;;;;;;;;;;;;;;13.35;73.96;99726.94;5000577;28;20300;-81
2023/04/19 00:27:23;;;;;;;;;;;;;;;13.40;73.46;99722.00;5003664;28;19961;-80
2023/04/19 00:29:48;;;;;;;;;;;;;;;13.41;73.63;99723.66;5001733;28;19921;-81
2023/04/19 00:32:14;;;;;;;;;;;;;;;13.33;74.11;99726.25;5021818;28;19985;-80
2023/04/19 00:34:39;;;;;;;;;;;;;;;13.35;73.89;99718.97;5034766;28;19969;-79
2023/04/19 00:37:05;;;;;;;;;;;;;;;13.37;74.27;99718.84;4998799;28;19930;-81
2023/04/19 00:39:31;;;;;;;;;;;;;;;13.30;75.29;99723.94;5036273;28;19933;-79
2023/04/19 00:41:56;;;;;;;;;;;;;;;13.34;75.02;99716.47;5003572;28;19925;-80
2023/04/19 00:44:22;;;;;;;;;;;;;;;13.32;75.36;99719.28;5016807;28;20352;-80
2023/04/19 00:46:48;;;;;;;;;;;;;;;13.32;75.61;99716.63;5036506;28;20376;-81
2023/04/19 00:49:16;;;;;;;;;;;;;;;13.13;77.33;99718.66;5036755;28;20430;-80
2023/04/19 00:51:41;;;;;;;;;;;;;;;13.07;77.39;99720.09;5037106;28;19921;-80
2023/04/19 00:54:08;;;;;;;;;;;;;;;13.04;77.60;99720.38;5035534;28;19973;-80
2023/04/19 00:56:34;;;;;;;;;;;;;;;12.97;77.89;99716.69;5022752;28;20012;-80
2023/04/19 00:59:00;;;;;;;;;;;;;;;12.95;77.90;99723.97;5032122;28;19929;-79
2023/04/19 01:01:25;;;;;;;;;;;;;;;12.98;77.49;99726.28;5044289;28;20349;-80
2023/04/19 01:03:50;;;;;;;;;;;;;;;13.00;77.69;99719.03;5036258;28;19921;-80
2023/04/19 01:06:18;;;;;;;;;;;;;;;13.00;77.67;99724.34;5020077;28;19975;-79
2023/04/19 01:08:43;;;;;;;;;;;;;;;12.83;78.72;99726.03;5021691;28;19925;-79
2023/04/19 01:11:09;;;;;;;;;;;;;;;12.89;78.22;99721.94;5021710;28;19948;-79
2023/04/19 01:13:35;;;;;;;;;;;;;;;12.91;78.71;99719.94;5034558;28;19928;-80
2023/04/19 01:16:00;;;;;;;;;;;;;;;12.91;78.67;99725.25;5022873;28;19921;-79
2023/04/19 01:18:31;;;;;;;;;;;;;;;12.92;78.89;99725.09;5019124;28;19988;-78
2023/04/19 01:20:57;;;;;;;;;;;;;;;12.91;79.69;99719.94;5047102;28;20296;-79
2023/04/19 01:23:22;;;;;;;;;;;;;;;12.82;81.43;99723.53;5020545;28;20012;-79
2023/04/19 01:25:49;;;;;;;;;;;;;;;12.89;80.58;99721.94;5035399;28;19956;-83
2023/04/19 01:28:14;;;;;;;;;;;;;;;12.84;80.96;99724.22;5021168;28;19988;-83
2023/04/19 01:30:40;;;;;;;;;;;;;;;12.80;81.45;99717.53;5021452;28;19921;-81
2023/04/19 01:33:06;;;;;;;;;;;;;;;12.69;81.98;99726.56;5021546;28;19925;-80
2023/04/19 01:35:31;;;;;;;;;;;;;;;12.71;81.78;99720.13;5018969;28;19929;-80
2023/04/19 01:37:56;;;;;;;;;;;;;;;12.69;81.64;99724.75;5037864;28;19957;-82
2023/04/19 01:40:23;;;;;;;;;;;;;;;12.51;81.90;99718.63;5017469;28;19921;-82
2023/04/19 01:42:48;;;;;;;;;;;;;;;12.37;83.37;99724.41;5037936;28;20440;-82
2023/04/19 01:45:14;;;;;;;;;;;;;;;12.44;83.48;99722.00;5032144;28;20399;-82
2023/04/19 01:47:39;;;;;;;;;;;;;;;12.48;83.69;99718.09;5034067;28;20281;-80
2023/04/19 01:50:05;;;;;;;;;;;;;;;12.38;85.36;99718.16;5034018;28;19921;-81
2023/04/19 01:52:31;;;;;;;;;;;;;;;12.23;86.90;99709.06;5033828;28;19925;-79
2023/04/19 01:54:56;;;;;;;;;;;;;;;12.07;89.07;99709.75;5049603;28;20023;-80
2023/04/19 01:57:22;;;;;;;;;;;;;;;11.95;91.48;99704.81;5047961;28;19920;-78
2023/04/19 01:59:47;;;;;;;;;;;;;;;11.84;92.92;99708.44;5058218;28;19928;-78
2023/04/19 02:02:12;;;;;;;;;;;;;;;11.88;92.55;99715.97;5033978;28;20284;-78
2023/04/19 02:04:39;;;;;;;;;;;;;;;11.94;92.12;99713.72;5049411;28;19971;-80
2023/04/19 02:07:04;;;;;;;;;;;;;;;11.93;92.91;99707.59;5038630;28;19925;-81
2023/04/19 02:09:30;;;;;;;;;;;;;;;11.96;93.14;99714.41;5045786;28;19917;-81
2023/04/19 02:11:57;;;;;;;;;;;;;;;11.79;94.27;99706.25;5042205;28;20392;-82
2023/04/19 02:14:22;;;;;;;;;;;;;;;11.72;95.25;99705.13;5045150;28;20392;-80
2023/04/19 02:16:47;;;;;;;;;;;;;;;11.67;95.66;99707.38;5042518;28;20276;-79
2023/04/19 02:19:13;;;;;;;;;;;;;;;11.71;95.50;99703.50;5043625;28;19921;-79
2023/04/19 02:21:38;;;;;;;;;;;;;;;11.70;95.55;99701.81;5044717;28;19917;-83
2023/04/19 02:24:03;;;;;;;;;;;;;;;11.66;95.60;99702.28;5042814;28;20289;-83
2023/04/19 02:26:29;;;;;;;;;;;;;;;11.70;94.95;99712.41;5044025;28;19927;-83
2023/04/19 02:28:55;;;;;;;;;;;;;;;11.75;94.10;99707.53;5040263;28;19917;-82
2023/04/19 02:31:20;;;;;;;;;;;;;;;11.71;93.88;99714.06;5042011;28;19925;-82
2023/04/19 02:33:46;;;;;;;;;;;;;;;11.68;93.26;99709.06;5033682;28;19925;-79
2023/04/19 02:36:11;;;;;;;;;;;;;;;11.66;93.09;99716.31;5034436;28;20020;-81
2023/04/19 02:38:36;;;;;;;;;;;;;;;11.39;95.50;99713.63;5034347;28;19925;-82
2023/04/19 02:41:04;;;;;;;;;;;;;;;11.37;95.93;99710.28;5035015;28;19963;-82
2023/04/19 02:43:30;;;;;;;;;;;;;;;11.43;95.79;99704.41;5045402;28;19921;-82
2023/04/19 02:45:55;;;;;;;;;;;;;;;11.32;97.83;99707.25;5043352;28;19921;-81
2023/04/19 02:48:21;;;;;;;;;;;;;;;11.26;98.87;99708.66;5043582;28;19977;-83
2023/04/19 02:50:46;;;;;;;;;;;;;;;10.87;100.00;99702.63;5038781;28;20281;-81
2023/04/19 02:53:12;;;;;;;;;;;;;;;10.75;100.00;99701.13;5048002;28;20020;-79
2023/04/19 02:55:38;;;;;;;;;;;;;;;10.77;100.00;99701.81;5046550;28;20279;-80
2023/04/19 02:58:06;;;;;;;;;;;;;;;10.80;100.00;99698.88;5040982;28;19925;-81
2023/04/19 03:00:37;;;;;;;;;;;;;;;10.87;100.00;99700.00;5041880;28;19967;-81
2023/04/19 03:03:08;;;;;;;;;;;;;;;10.94;99.65;99698.47;5038106;28;19925;-82
2023/04/19 03:05:34;;;;;;;;;;;;;;;10.96;99.14;99699.13;5055611;28;20389;-80
2023/04/19 03:07:59;;;;;;;;;;;;;;;10.94;98.63;99697.63;5042949;28;19921;-81
2023/04/19 03:10:25;;;;;;;;;;;;;;;10.86;99.16;99690.41;5039128;28;19921;-80
2023/04/19 03:12:50;;;;;;;;;;;;;;;10.80;99.69;99696.25;5036894;28;19929;-77
2023/04/19 03:15:16;;;;;;;;;;;;;;;10.84;99.09;99697.63;5047136;28;20018;-79
2023/04/19 03:17:42;;;;;;;;;;;;;;;10.81;99.71;99699.72;5048510;28;20304;-79
2023/04/19 03:20:10;;;;;;;;;;;;;;;10.87;99.36;99702.63;5047788;28;19921;-80
2023/04/19 03:22:37;;;;;;;;;;;;;;;10.85;99.60;99699.28;5047614;28;20232;-81
2023/04/19 03:25:05;;;;;;;;;;;;;;;10.77;100.00;99701.81;5032157;28;20454;-81
2023/04/19 03:27:34;;;;;;;;;;;;;;;10.82;100.00;99699.59;5029502;28;20405;-80
2023/04/19 03:30:03;;;;;;;;;;;;;;;10.75;100.00;99698.47;5038777;28;19921;-79
2023/04/19 03:32:30;;;;;;;;;;;;;;;10.73;100.00;99705.69;5025356;28;19925;-80
2023/04/19 03:34:56;;;;;;;;;;;;;;;10.73;100.00;99703.03;5046715;28;20334;-80
2023/04/19 03:37:21;;;;;;;;;;;;;;;10.65;100.00;99708.22;5032656;28;19925;-79
2023/04/19 03:39:46;;;;;;;;;;;;;;;10.53;100.00;99702.25;5039824;28;20300;-81
2023/04/19 03:42:16;;;;;;;;;;;;;;;10.53;100.00;99710.16;5040204;28;19947;-79
2023/04/19 03:45:00;;;;;;;;;;;;;;;10.36;100.00;99704.72;5039278;28;20355;-80
2023/04/19 03:47:28;;;;;;;;;;;;;;;10.32;100.00;99700.69;5038143;28;19921;-79
2023/04/19 03:49:56;;;;;;;;;;;;;;;9.86;100.00;99696.81;5021607;28;19927;-79
2023/04/19 03:52:22;;;;;;;;;;;;;;;9.59;100.00;99697.44;5040934;28;19931;-80
2023/04/19 03:54:47;;;;;;;;;;;;;;;9.30;100.00;99697.31;5022312;28;19924;-81
2023/04/19 03:57:30;;;;;;;;;;;;;;;9.13;100.00;99694.47;5041742;28;19921;-81
2023/04/19 03:59:58;;;;;;;;;;;;;;;9.00;100.00;99690.22;5038063;28;19928;-81
2023/04/19 04:02:24;;;;;;;;;;;;;;;8.82;100.00;99696.19;5040270;28;19921;-81
2023/04/19 04:04:55;;;;;;;;;;;;;;;8.74;100.00;99693.34;5055564;28;20340;-79
2023/04/19 04:07:23;;;;;;;;;;;;;;;8.72;100.00;99690.03;5040720;28;20377;-78
2023/04/19 04:09:50;;;;;;;;;;;;;;;8.92;100.00;99691.81;5039842;28;19921;-83
2023/04/19 04:12:15;;;;;;;;;;;;;;;9.03;100.00;99694.38;5048151;28;19931;-83
2023/04/19 04:14:41;;;;;;;;;;;;;;;9.16;100.00;99699.44;5046950;28;19921;-79
2023/04/19 04:17:07;;;;;;;;;;;;;;;9.21;100.00;99703.34;5046025;28;20021;-78
2023/04/19 04:19:32;;;;;;;;;;;;;;;9.15;100.00;99693.34;5030457;28;19921;-80
2023/04/19 04:21:58;;;;;;;;;;;;;;;9.14;100.00;99696.09;5046410;28;19972;-79
2023/04/19 04:24:25;;;;;;;;;;;;;;;8.97;100.00;99693.09;5045383;28;19921;-80
2023/04/19 04:27:19;;;;;;;;;;;;;;;8.86;100.00;99697.59;5028433;28;19951;-81
2023/04/19 04:29:44;;;;;;;;;;;;;;;8.92;100.00;99699.72;5031146;28;19921;-80
2023/04/19 04:32:10;;;;;;;;;;;;;;;8.75;100.00;99700.28;5045033;28;19921;-80
2023/04/19 04:34:38;;;;;;;;;;;;;;;8.73;100.00;99697.78;5030879;28;19928;-83
2023/04/19 04:37:07;;;;;;;;;;;;;;;8.74;100.00;99699.47;5046125;28;20292;-83
2023/04/19 04:39:38;;;;;;;;;;;;;;;8.87;100.00;99709.81;5029145;28;20062;-81
2023/04/19 04:42:06;;;;;;;;;;;;;;;8.97;100.00;99708.06;5030064;28;20410;-84
2023/04/19 04:44:33;;;;;;;;;;;;;;;9.06;100.00;99709.94;5049000;28;19979;-84
2023/04/19 04:46:58;;;;;;;;;;;;;;;9.12;100.00;99704.16;5038315;28;19924;-85
2023/04/19 04:49:26;;;;;;;;;;;;;;;9.15;100.00;99706.50;5041474;28;20687;-83
2023/04/19 04:51:51;;;;;;;;;;;;;;;9.18;100.00;99703.63;5038188;28;20020;-81
2023/04/19 04:54:18;;;;;;;;;;;;;;;9.04;100.00;99706.59;5041505;28;19920;-81
2023/04/19 04:56:44;;;;;;;;;;;;;;;9.20;100.00;99706.94;5040372;28;20403;-82
2023/04/19 04:59:10;;;;;;;;;;;;;;;9.28;100.00;99714.22;5037421;28;20008;-84
2023/04/19 05:01:39;;;;;;;;;;;;;;;9.31;100.00;99713.94;5035614;28;19927;-83
2023/04/19 05:04:04;;;;;;;;;;;;;;;9.32;100.00;99711.19;5023792;28;19921;-84
2023/04/19 05:06:31;;;;;;;;;;;;;;;9.15;100.00;99714.41;5042492;28;19928;-79
2023/04/19 05:08:57;;;;;;;;;;;;;;;8.98;100.00;99715.00;5036881;28;19929;-78
2023/04/19 05:11:31;;;;;;;;;;;;;;;9.15;100.00;99711.78;5049965;28;20032;-80
2023/04/19 05:13:57;;;;;;;;;;;;;;;9.22;100.00;99710.31;5043035;28;19932;-81
2023/04/19 05:16:23;;;;;;;;;;;;;;;9.24;100.00;99718.91;5036785;28;19921;-79
2023/04/19 05:18:48;;;;;;;;;;;;;;;9.32;100.00;99711.19;5034290;28;19925;-82
2023/04/19 05:21:14;;;;;;;;;;;;;;;9.34;100.00;99713.69;5041498;28;20369;-84
2023/04/19 05:23:40;;;;;;;;;;;;;;;9.27;100.00;99718.63;5029641;28;19928;-82
2023/04/19 05:26:06;;;;;;;;;;;;;;;9.26;100.00;99709.06;5027976;28;20103;-81
2023/04/19 05:28:32;;;;;;;;;;;;;;;9.29;100.00;99711.44;5047794;28;19921;-83
2023/04/19 05:31:21;;;;;;;;;;;;;;;9.18;100.00;99714.16;5030501;28;19929;-83
2023/04/19 05:34:09;;;;;;;;;;;;;;;9.16;100.00;99702.91;5027559;28;19925;-80
2023/04/19 05:36:34;;;;;;;;;;;;;;;9.15;100.00;99703.88;5043815;28;19969;-79
2023/04/19 05:39:00;;;;;;;;;;;;;;;9.27;100.00;99702.84;5040743;28;20395;-76
2023/04/19 05:41:26;;;;;;;;;;;;;;;9.37;100.00;99703.72;5012989;28;20009;-78
2023/04/19 05:43:51;;;;;;;;;;;;;;;9.25;100.00;99704.75;5018664;28;20366;-79
2023/04/19 05:46:17;;;;;;;;;;;;;;;9.20;100.00;99706.13;5000266;28;19929;-77
2023/04/19 05:48:43;;;;;;;;;;;;;;;9.25;100.00;99714.44;5006701;28;20004;-78
2023/04/19 05:51:30;;;;;;;;;;;;;;;9.33;100.00;99707.59;5000412;28;20341;-76
2023/04/19 05:54:11;;;;;;;;;;;;;;;9.45;100.00;99706.53;5017598;28;20481;-78
2023/04/19 05:56:38;;;;;;;;;;;;;;;9.55;100.00;99705.72;4998234;28;19921;-77
2023/04/19 05:59:03;;;;;;;;;;;;;;;9.62;100.00;99702.44;5011025;28;20020;-76
2023/04/19 06:01:29;;;;;;;;;;;;;;;9.67;100.00;99709.94;5016926;28;19926;-75
2023/04/19 06:03:54;;;;;;;;;;;;;;;9.75;100.00;99712.75;5012416;28;19928;-76
2023/04/19 06:06:23;;;;;;;;;;;;;;;9.56;100.00;99712.66;5020066;28;20023;-78
2023/04/19 06:08:48;;;;;;;;;;;;;;;9.77;100.00;99710.81;5020160;28;19925;-76
2023/04/19 06:11:14;;;;;;;;;;;;;;;9.86;100.00;99704.72;5020130;28;19925;-77
2023/04/19 06:13:40;;;;;;;;;;;;;;;9.94;100.00;99702.28;5017637;28;20610;-79
2023/04/19 06:16:06;;;;;;;;;;;;;;;10.07;100.00;99702.81;5017792;28;19925;-79
2023/04/19 06:18:32;;;;;;;;;;;;;;;10.22;100.00;99696.25;5008025;28;19925;-78
2023/04/19 06:20:57;;;;;;;;;;;;;;;10.29;100.00;99698.34;5017228;28;19944;-78
2023/04/19 06:23:24;;;;;;;;;;;;;;;10.53;100.00;99698.75;5022581;28;19929;-79
2023/04/19 06:25:49;;;;;;;;;;;;;;;10.71;100.00;99697.09;5023353;28;20420;-78
2023/04/19 06:28:15;;;;;;;;;;;;;;;10.82;100.00;99694.31;5035745;28;19967;-79
2023/04/19 06:30:40;;;;;;;;;;;;;;;11.02;100.00;99698.56;5021537;28;19921;-79
2023/04/19 06:33:05;;;;;;;;;;;;;;;11.18;100.00;99699.78;5022237;28;20004;-80
2023/04/19 06:35:31;;;;;;;;;;;;;;;11.31;99.28;99695.03;5020184;28;19925;-77
2023/04/19 06:37:57;;;;;;;;;;;;;;;11.46;97.88;99698.88;5020362;28;19925;-78
2023/04/19 06:40:23;;;;;;;;;;;;;;;11.58;96.94;99689.78;5022416;28;19971;-79
2023/04/19 06:42:48;;;;;;;;;;;;;;;11.58;97.15;99692.41;5026913;28;19921;-79
2023/04/19 06:45:15;;;;;;;;;;;;;;;11.77;96.03;99692.38;5049058;28;19921;-78
2023/04/19 06:47:40;;;;;;;;;;;;;;;11.74;95.36;99682.06;5049639;28;19921;-78
2023/04/19 06:50:06;;;;;;;;;;;;;;;12.07;93.18;99687.75;5048368;28;19947;-79
2023/04/19 06:52:31;;;;;;;;;;;;;;;12.13;92.34;99688.00;5050911;28;19970;-79
2023/04/19 06:54:57;;;;;;;;;;;;;;;12.14;91.26;99683.50;5042221;28;19925;-80
2023/04/19 06:57:22;;;;;;;;;;;;;;;12.32;90.66;99681.69;5045254;28;19920;-80
2023/04/19 06:59:47;;;;;;;;;;;;;;;12.45;90.44;99681.34;5042031;28;20322;-79
2023/04/19 07:02:13;;;;;;;;;;;;;;;12.48;90.06;99681.03;5037855;28;19921;-80
2023/04/19 07:04:38;;;;;;;;;;;;;;;12.49;90.53;99675.56;5040087;28;19922;-79
2023/04/19 07:07:03;;;;;;;;;;;;;;;12.67;89.84;99681.69;5041445;28;19921;-79
2023/04/19 07:09:29;;;;;;;;;;;;;;;12.66;90.40;99674.72;5038487;28;20070;-79
2023/04/19 07:11:54;;;;;;;;;;;;;;;12.78;90.43;99682.47;5041633;28;19953;-78
2023/04/19 07:14:19;;;;;;;;;;;;;;;12.97;89.30;99677.78;5038639;28;19921;-78
2023/04/19 07:16:45;;;;;;;;;;;;;;;13.13;88.18;99677.13;5038999;28;20018;-80
2023/04/19 07:19:11;;;;;;;;;;;;;;;13.23;86.76;99672.53;5036790;28;19921;-78
2023/04/19 07:21:38;;;;;;;;;;;;;;;13.33;85.98;99678.53;5040866;28;19925;-79
2023/04/19 07:24:04;;;;;;;;;;;;;;;13.41;85.67;99670.66;5041020;28;20372;-80
2023/04/19 07:26:29;;;;;;;;;;;;;;;13.52;85.54;99667.72;5039578;28;20018;-79
2023/04/19 07:28:55;;;;;;;;;;;;;;;13.64;84.13;99670.09;5041353;28;19987;-80
2023/04/19 07:31:21;;;;;;;;;;;;;;;13.72;83.14;99664.81;5041750;28;19985;-80
2023/04/19 07:33:46;;;;;;;;;;;;;;;13.78;82.72;99666.84;5039926;28;19925;-79
2023/04/19 07:36:11;;;;;;;;;;;;;;;13.88;81.85;99672.81;5037693;28;19990;-78
2023/04/19 07:38:37;;;;;;;;;;;;;;;13.99;80.80;99664.56;5036357;28;20046;-79
2023/04/19 07:41:04;;;;;;;;;;;;;;;14.12;80.76;99670.25;5038966;28;19928;-79
2023/04/19 07:43:29;;;;;;;;;;;;;;;14.26;78.80;99666.94;5035575;28;19984;-82
2023/04/19 07:45:55;;;;;;;;;;;;;;;14.32;78.76;99663.63;5019534;28;19921;-82
2023/04/19 07:48:20;;;;;;;;;;;;;;;14.44;77.88;99663.34;5020357;28;19940;-83
2023/04/19 07:50:45;;;;;;;;;;;;;;;14.56;77.43;99656.72;5023135;28;19964;-82
2023/04/19 07:53:11;;;;;;;;;;;;;;;14.57;77.30;99659.22;5018969;28;20432;-82
2023/04/19 07:55:36;;;;;;;;;;;;;;;14.63;77.25;99660.38;5023473;28;19921;-82
2023/04/19 07:58:02;;;;;;;;;;;;;;;14.71;76.69;99655.06;5031933;28;20024;-81
2023/04/19 08:00:28;;;;;;;;;;;;;;;14.75;76.46;99654.56;5028691;28;19925;-81
2023/04/19 08:02:55;;;;;;;;;;;;;;;14.87;76.10;99647.06;5030921;28;19921;-79
2023/04/19 08:05:21;;;;;;;;;;;;;;;15.01;75.66;99651.72;5030883;28;20396;-83
2023/04/19 08:07:47;;;;;;;;;;;;;;;15.09;74.94;99649.03;5020694;28;19925;-81
2023/04/19 08:10:12;;;;;;;;;;;;;;;15.16;74.36;99636.72;5022575;28;19994;-82
2023/04/19 08:12:37;;;;;;;;;;;;;;;15.24;73.98;99640.38;5021523;28;19921;-81
2023/04/19 08:15:06;;;;;;;;;;;;;;;15.28;73.58;99636.34;5032770;28;20369;-82
2023/04/19 08:17:31;;;;;;;;;;;;;;;15.41;72.81;99641.97;5037504;28;19922;-81
2023/04/19 08:19:56;;;;;;;;;;;;;;;15.55;72.44;99635.97;5024634;28;19931;-82
2023/04/19 08:22:22;;;;;;;;;;;;;;;15.66;71.66;99632.09;5053725;28;19933;-83
2023/04/19 08:24:48;;;;;;;;;;;;;;;15.76;70.63;99636.22;5018745;28;19921;-81
2023/04/19 08:27:14;;;;;;;;;;;;;;;15.84;69.43;99633.53;5016428;28;20010;-82
2023/04/19 08:29:39;;;;;;;;;;;;;;;15.77;69.80;99632.56;5016402;28;20547;-82
2023/04/19 08:32:05;;;;;;;;;;;;;;;15.85;69.84;99629.81;5016504;28;19929;-82
2023/04/19 08:34:30;;;;;;;;;;;;;;;15.68;67.97;99622.09;5018590;28;19921;-82
2023/04/19 08:36:56;;;;;;;;;;;;;;;15.76;68.12;99625.56;5020675;28;20020;-81
2023/04/19 08:39:21;;;;;;;;;;;;;;;15.88;67.40;99618.84;5018407;28;19929;-79
2023/04/19 08:41:48;;;;;;;;;;;;;;;15.89;65.69;99625.84;5021870;28;19929;-81
2023/04/19 08:44:15;;;;;;;;;;;;;;;15.91;65.50;99613.16;5033981;28;20329;-77
2023/04/19 08:46:41;;;;;;;;;;;;;;;16.03;65.09;99607.44;5039471;28;19921;-78
2023/04/19 08:49:07;;;;;;;;;;;;;;;16.09;65.56;99614.72;5037882;28;20432;-79
2023/04/19 08:51:32;;;;;;;;;;;;;;;16.17;65.61;99606.69;5035416;28;19925;-78
2023/04/19 08:53:58;;;;;;;;;;;;;;;16.13;65.65;99603.56;5037711;28;19969;-79
2023/04/19 08:56:23;;;;;;;;;;;;;;;16.22;65.41;99606.97;5041993;28;19921;-78
2023/04/19 08:58:49;;;;;;;;;;;;;;;16.26;64.92;99600.28;5044626;28;19920;-79
2023/04/19 09:01:14;;;;;;;;;;;;;;;16.35;64.19;99604.56;5032998;28;19989;-79
2023/04/19 09:03:46;;;;;;;;;;;;;;;16.45;63.47;99598.97;5044447;28;19929;-79
2023/04/19 09:06:11;;;;;;;;;;;;;;;16.41;62.62;99597.69;5042845;28;19921;-79
2023/04/19 09:08:41;;;;;;;;;;;;;;;16.35;62.13;99593.91;5022766;28;19932;-77
2023/04/19 09:11:07;;;;;;;;;;;;;;;16.39;60.99;99595.19;5041066;28;20371;-79
2023/04/19 09:13:35;;;;;;;;;;;;;;;16.47;60.96;99589.81;5042058;28;20035;-80
2023/04/19 09:16:01;;;;;;;;;;;;;;;16.61;60.79;99583.69;5043486;28;19927;-80
2023/04/19 09:18:27;;;;;;;;;;;;;;;16.72;60.15;99582.47;5043762;28;19928;-82
2023/04/19 09:20:59;;;;;;;;;;;;;;;16.81;59.92;99577.88;5041793;28;19940;-79
2023/04/19 09:23:26;;;;;;;;;;;;;;;16.89;59.97;99575.97;5043945;28;19924;-80
2023/04/19 09:25:56;;;;;;;;;;;;;;;16.92;57.47;99570.25;5041337;28;19978;-80
2023/04/19 09:28:21;;;;;;;;;;;;;;;16.95;57.17;99577.06;5043396;28;19921;-79
2023/04/19 09:30:47;;;;;;;;;;;;;;;16.99;56.04;99565.00;5041519;28;20008;-79
2023/04/19 09:33:13;;;;;;;;;;;;;;;17.03;57.09;99571.63;5042130;28;19933;-79
2023/04/19 09:35:48;;;;;;;;;;;;;;;17.04;57.28;99551.94;5041295;28;20376;-80
2023/04/19 09:38:14;;;;;;;;;;;;;;;17.14;56.87;99552.53;5042718;28;19921;-80
2023/04/19 09:40:40;;;;;;;;;;;;;;;17.24;56.41;99553.06;5038591;28;19986;-81
2023/04/19 09:43:06;;;;;;;;;;;;;;;17.33;56.24;99543.94;5042269;28;19925;-80
2023/04/19 09:45:41;;;;;;;;;;;;;;;17.42;56.00;99545.50;5040357;28;20122;-80
2023/04/19 09:48:07;;;;;;;;;;;;;;;17.47;55.24;99543.09;5036801;28;20712;-79
2023/04/19 09:50:32;;;;;;;;;;;;;;;17.56;55.62;99539.28;5042165;28;20408;-79
2023/04/19 09:52:58;;;;;;;;;;;;;;;17.68;55.64;99533.47;5044809;28;20304;-79
2023/04/19 09:55:24;;;;;;;;;;;;;;;17.81;55.34;99528.28;5041532;28;20003;-80
2023/04/19 09:57:50;;;;;;;;;;;;;;;17.91;54.77;99528.78;5043659;28;19921;-79
2023/04/19 10:00:16;;;;;;;;;;;;;;;18.00;53.45;99522.34;5041254;28;19924;-80
2023/04/19 10:02:43;;;;;;;;;;;;;;;18.03;52.00;99516.59;5038171;28;20015;-81
2023/04/19 10:05:09;;;;;;;;;;;;;;;18.06;52.71;99520.75;5042150;28;20420;-83
2023/04/19 10:07:36;;;;;;;;;;;;;;;18.09;52.34;99513.16;5043152;28;19925;-82
2023/04/19 10:10:02;;;;;;;;;;;;;;;18.14;52.36;99505.44;5041478;28;19959;-84
2023/04/19 10:12:30;;;;;;;;;;;;;;;18.14;51.48;99502.75;5036275;28;20018;-82
2023/04/19 10:14:56;;;;;;;;;;;;;;;18.20;50.94;99501.94;5041493;28;19921;-85
2023/04/19 10:17:22;;;;;;;;;;;;;;;18.25;50.81;99499.56;5043544;28;19936;-85
2023/04/19 10:19:50;;;;;;;;;;;;;;;18.33;48.57;99491.38;5041345;28;20023;-83
2023/04/19 10:22:15;;;;;;;;;;;;;;;18.38;46.55;99494.28;5039681;28;20384;-85
2023/04/19 10:25:01;;;;;;;;;;;;;;;18.44;45.07;99492.69;5039593;28;20023;-84
2023/04/19 10:27:26;;;;;;;;;;;;;;;18.41;42.50;99483.22;5041020;28;20435;-85
2023/04/19 10:29:59;;;;;;;;;;;;;;;18.44;41.88;99476.66;5044127;28;19929;-84
2023/04/19 10:32:43;;;;;;;;;;;;;;;18.45;41.53;99477.47;5040086;28;20293;-81
2023/04/19 10:35:22;;;;;;;;;;;;;;;18.49;40.71;99476.09;5039499;28;19921;-83
2023/04/19 10:38:06;;;;;;;;;;;;;;;18.49;40.15;99468.91;5044388;28;19924;-84
2023/04/19 10:40:57;;;;;;;;;;;;;;;18.52;40.43;99463.16;5039303;28;19924;-85
2023/04/19 10:43:24;;;;;;;;;;;;;;;18.57;40.12;99454.56;5039879;28;19972;-85
2023/04/19 10:45:49;;;;;;;;;;;;;;;18.58;40.23;99449.03;5044179;28;19921;-86
2023/04/19 10:48:32;;;;;;;;;;;;;;;18.63;40.25;99448.44;5039149;28;19978;-84
2023/04/19 10:51:06;;;;;;;;;;;;;;;18.70;40.15;99443.97;5043774;28;20062;-84
2023/04/19 10:53:44;;;;;;;;;;;;;;;18.85;38.22;99438.50;5037076;28;20377;-83
2023/04/19 10:56:10;;;;;;;;;;;;;;;18.93;37.14;99432.97;5040901;28;19947;-84
2023/04/19 10:58:54;;;;;;;;;;;;;;;18.98;37.54;99430.53;5045093;28;19920;-84
2023/04/19 11:01:33;;;;;;;;;;;;;;;18.98;36.94;99420.66;5042489;28;20007;-84
2023/04/19 11:03:59;;;;;;;;;;;;;;;19.07;38.79;99411.44;5035836;28;20043;-84
2023/04/19 11:06:26;;;;;;;;;;;;;;;19.13;39.12;99407.13;5044734;28;20000;-85
2023/04/19 11:08:52;;;;;;;;;;;;;;;19.21;38.59;99393.56;5058358;28;19917;-85
2023/04/19 11:11:18;;;;;;;;;;;;;;;19.27;38.14;99386.56;5043333;28;19936;-85
2023/04/19 11:13:46;;;;;;;;;;;;;;;19.30;37.75;99375.47;5042128;28;19968;-84
2023/04/19 11:16:11;;;;;;;;;;;;;;;19.34;36.28;99376.72;5044224;28;20431;-82
2023/04/19 11:18:36;;;;;;;;;;;;;;;19.35;36.54;99381.06;5045865;28;19925;-85
2023/04/19 11:21:02;;;;;;;;;;;;;;;19.43;35.92;99370.16;5040816;28;19943;-85
2023/04/19 11:23:27;;;;;;;;;;;;;;;19.46;36.34;99361.75;5040779;28;19971;-84
2023/04/19 11:25:54;;;;;;;;;;;;;;;19.51;36.01;99362.78;5042145;28;19921;-83
2023/04/19 11:28:20;;;;;;;;;;;;;;;19.59;35.52;99364.44;5044000;28;19921;-85
2023/04/19 11:30:46;;;;;;;;;;;;;;;19.63;34.69;99349.59;5042528;28;20039;-84
2023/04/19 11:33:12;;;;;;;;;;;;;;;19.70;34.87;99354.97;5040090;28;20006;-84
2023/04/19 11:35:38;;;;;;;;;;;;;;;19.78;33.35;99344.88;5039232;28;20068;-85
2023/04/19 11:38:04;;;;;;;;;;;;;;;19.86;32.64;99333.94;5044921;28;20292;-85
2023/04/19 11:40:30;;;;;;;;;;;;;;;19.94;32.68;99333.72;5037878;28;20560;-81
2023/04/19 11:42:56;;;;;;;;;;;;;;;20.17;31.99;99335.13;5041040;28;20002;-82
2023/04/19 11:45:23;;;;;;;;;;;;;;;20.17;31.49;99332.44;5060481;22;19924;-77
2023/04/19 11:47:49;;;;;;;;;;;;;;;20.26;30.80;99317.81;5031011;28;19932;-77
2023/04/19 11:50:30;;;;;;;;;;;;;;;20.28;30.95;99318.41;5034747;28;19925;-77
2023/04/19 11:52:56;;;;;;;;;;;;;;;20.41;31.73;99316.53;5025597;28;20384;-77
2023/04/19 11:55:22;;;;;;;;;;;;;;;20.55;32.15;99306.59;5041935;28;19920;-74
2023/04/19 11:57:50;;;;;;;;;;;;;;;20.68;31.41;99306.53;5038832;28;20234;-77
2023/04/19 12:00:26;;;;;;;;;;;;;;;20.82;31.72;99302.75;5040182;28;19921;-80
2023/04/19 12:02:51;;;;;;;;;;;;;;;20.96;31.32;99303.50;5039701;28;19975;-80
2023/04/19 12:05:16;;;;;;;;;;;;;;;21.10;31.62;99293.50;5033479;28;19925;-79
2023/04/19 12:08:04;;;;;;;;;;;;;;;21.22;29.89;99281.06;5035424;28;19931;-79
2023/04/19 12:10:30;;;;;;;;;;;;;;;21.34;29.66;99284.69;5037889;28;20411;-80
2023/04/19 12:12:56;;;;;;;;;;;;;;;21.50;30.11;99278.75;5039707;28;19925;-78
2023/04/19 12:15:21;;;;;;;;;;;;;;;21.73;30.20;99271.97;5035727;28;20007;-79
2023/04/19 12:18:00;;;;;;;;;;;;;;;21.87;30.05;99268.09;5036104;28;19925;-79
2023/04/19 12:20:29;;;;;;;;;;;;;;;22.05;29.60;99270.81;5036301;28;19931;-77
2023/04/19 12:22:54;;;;;;;;;;;;;;;22.16;29.75;99267.38;5042254;28;19925;-80
2023/04/19 12:25:20;;;;;;;;;;;;;;;22.36;29.57;99262.59;5035453;28;19940;-79
2023/04/19 12:27:45;;;;;;;;;;;;;;;22.45;28.56;99250.47;5038335;28;19925;-77
2023/04/19 12:30:10;;;;;;;;;;;;;;;22.59;29.30;99247.63;5036335;28;20395;-80
2023/04/19 12:32:36;;;;;;;;;;;;;;;22.73;28.21;99251.81;5038419;28;19932;-81
2023/04/19 12:35:02;;;;;;;;;;;;;;;22.85;28.30;99248.09;5031192;28;19929;-79
2023/04/19 12:37:33;;;;;;;;;;;;;;;23.00;27.49;99242.28;4685388;28;10000383;-82
2023/04/19 12:39:59;;;;;;;;;;;;;;;23.07;27.75;99243.00;5029765;28;20518;-78
2023/04/19 12:42:24;;;;;;;;;;;;;;;23.22;28.17;99240.69;5034045;28;19924;-83
2023/04/19 12:44:50;;;;;;;;;;;;;;;23.32;27.20;99233.94;5038344;28;20128;-80